Airfield :
LOGIN :

Register | Disclaimer

   EN    FR    IT 

 










Legend :    VFR   Marginal VFR   IFR   Intensive IFR   Very Intensive IFR
Visi :
Ceiling :
>= 8 km
>= 3000ft
5 to 8 km
1000 to 3000 ft
1500m to 5 km
500 to 1000 ft
800 to 1500m
200 to 500 ft
< 800m
< 200 ft
Symbols :   Thunderstorms  Fog  Heavy snow  Heavy precipitations  Wind > 20 kt
SIGMETs :     Misc.  Thunderstorms  Icing  Turbulence  Mountain Waves  Volcanic Ashes






- Airport Elevation : 38 ft
- IATA code : BOH


EGHH - Bournemouth

CURRENT METAR :
  • 250020Z 20004KT 9999 BKN008 15/15 Q1017

EXPIRED METARs :
  • 242350Z 22007KT 7000 -DZ BKN006 15/15 Q1017
  • 242320Z 22007KT 9000 -DZ BKN008 16/14 Q1017
  • 242250Z 21007KT 9999 BKN012 16/14 Q1017
  • 242220Z 22010KT 9999 BKN012 16/14 Q1017
  • 242150Z 22007KT 9999 SCT015 SCT030 16/14 Q1017
  • 242120Z 22007KT 9999 SCT015 SCT030 16/14 Q1018
  • 242050Z 22009KT 9999 SCT015 SCT030 16/14 Q1018
  • 242020Z 22009KT 9999 SCT015 SCT030 16/13 Q1018
  • 241950Z 22010KT 9999 BKN013 16/14 Q1018

Expired Forecast.
ATIS : +44 1202 364 151
Met : +44 1202 364 158 (TAF)



MET'MAP, your aeronautical weather chart ! - Copyright ORBIFLY December 2007 - Disclaimer

ORBIFLY MET'MAP TEAM :

Programming & Development : Alexandra Zaïnal
Original concept : Baudouin d'Aumeries
Technical & hardware support : Manuel Goepfert
Assistance : Marc-Olivier Méhu




SOURCES & CREDITS :

   NOAA